sensor_id;sensor_type;location;lat;lon;timestamp;P1;durP1;ratioP1;P2;durP2;ratioP2
36351;SDS011;22382;44.768;17.206;2023-12-20T00:01:07;162.50;;;86.80;;
36351;SDS011;22382;44.768;17.206;2023-12-20T00:03:35;159.85;;;84.50;;
36351;SDS011;22382;44.768;17.206;2023-12-20T00:06:08;157.70;;;84.43;;
36351;SDS011;22382;44.768;17.206;2023-12-20T00:08:36;152.43;;;81.28;;
36351;SDS011;22382;44.768;17.206;2023-12-20T00:11:04;139.55;;;77.70;;
36351;SDS011;22382;44.768;17.206;2023-12-20T00:13:32;135.65;;;74.85;;
36351;SDS011;22382;44.768;17.206;2023-12-20T00:15:59;146.18;;;79.55;;
36351;SDS011;22382;44.768;17.206;2023-12-20T00:18:26;142.70;;;79.75;;
36351;SDS011;22382;44.768;17.206;2023-12-20T00:20:54;151.98;;;79.53;;
36351;SDS011;22382;44.768;17.206;2023-12-20T00:23:21;167.38;;;86.70;;
36351;SDS011;22382;44.768;17.206;2023-12-20T00:25:49;181.18;;;94.88;;
36351;SDS011;22382;44.768;17.206;2023-12-20T00:28:17;195.50;;;96.88;;
36351;SDS011;22382;44.768;17.206;2023-12-20T00:30:44;187.25;;;95.43;;
36351;SDS011;22382;44.768;17.206;2023-12-20T00:33:11;186.63;;;94.72;;
36351;SDS011;22382;44.768;17.206;2023-12-20T00:35:39;192.23;;;96.82;;
36351;SDS011;22382;44.768;17.206;2023-12-20T00:38:06;181.25;;;91.50;;
36351;SDS011;22382;44.768;17.206;2023-12-20T00:40:35;174.70;;;88.20;;
36351;SDS011;22382;44.768;17.206;2023-12-20T00:43:02;178.48;;;92.28;;
36351;SDS011;22382;44.768;17.206;2023-12-20T00:45:30;176.23;;;90.45;;
36351;SDS011;22382;44.768;17.206;2023-12-20T00:47:57;158.48;;;86.28;;
36351;SDS011;22382;44.768;17.206;2023-12-20T00:50:25;178.27;;;90.85;;
36351;SDS011;22382;44.768;17.206;2023-12-20T00:52:55;169.52;;;88.18;;
36351;SDS011;22382;44.768;17.206;2023-12-20T00:55:23;157.27;;;82.35;;
36351;SDS011;22382;44.768;17.206;2023-12-20T00:57:50;158.27;;;85.07;;
36351;SDS011;22382;44.768;17.206;2023-12-20T01:00:17;160.80;;;87.10;;
36351;SDS011;22382;44.768;17.206;2023-12-20T01:02:45;150.38;;;81.88;;
36351;SDS011;22382;44.768;17.206;2023-12-20T01:05:15;164.70;;;87.70;;
36351;SDS011;22382;44.768;17.206;2023-12-20T01:07:44;175.45;;;89.78;;
36351;SDS011;22382;44.768;17.206;2023-12-20T01:10:11;166.80;;;87.38;;
36351;SDS011;22382;44.768;17.206;2023-12-20T01:12:39;168.98;;;86.43;;
36351;SDS011;22382;44.768;17.206;2023-12-20T01:15:06;152.82;;;80.72;;
36351;SDS011;22382;44.768;17.206;2023-12-20T01:17:33;152.63;;;80.15;;
36351;SDS011;22382;44.768;17.206;2023-12-20T01:20:00;183.95;;;96.45;;
36351;SDS011;22382;44.768;17.206;2023-12-20T01:22:28;175.07;;;91.35;;
36351;SDS011;22382;44.768;17.206;2023-12-20T01:24:55;164.82;;;86.88;;
36351;SDS011;22382;44.768;17.206;2023-12-20T01:27:22;160.57;;;83.15;;
36351;SDS011;22382;44.768;17.206;2023-12-20T01:29:50;144.20;;;76.47;;
36351;SDS011;22382;44.768;17.206;2023-12-20T01:32:17;130.30;;;68.80;;
36351;SDS011;22382;44.768;17.206;2023-12-20T01:34:44;130.98;;;66.88;;
36351;SDS011;22382;44.768;17.206;2023-12-20T01:37:12;121.60;;;62.05;;
36351;SDS011;22382;44.768;17.206;2023-12-20T01:39:40;139.32;;;72.43;;
36351;SDS011;22382;44.768;17.206;2023-12-20T01:42:07;114.55;;;60.72;;
36351;SDS011;22382;44.768;17.206;2023-12-20T01:44:34;124.70;;;64.05;;
36351;SDS011;22382;44.768;17.206;2023-12-20T01:47:01;117.78;;;58.40;;
36351;SDS011;22382;44.768;17.206;2023-12-20T01:49:28;90.50;;;48.47;;
36351;SDS011;22382;44.768;17.206;2023-12-20T01:51:56;96.20;;;51.35;;
36351;SDS011;22382;44.768;17.206;2023-12-20T01:54:23;121.25;;;60.63;;
36351;SDS011;22382;44.768;17.206;2023-12-20T01:56:51;112.80;;;60.45;;
36351;SDS011;22382;44.768;17.206;2023-12-20T01:59:18;119.78;;;63.55;;
36351;SDS011;22382;44.768;17.206;2023-12-20T02:01:47;118.80;;;61.85;;
36351;SDS011;22382;44.768;17.206;2023-12-20T02:04:14;114.35;;;60.92;;
36351;SDS011;22382;44.768;17.206;2023-12-20T02:06:43;110.97;;;60.60;;
36351;SDS011;22382;44.768;17.206;2023-12-20T02:09:12;111.15;;;59.00;;
36351;SDS011;22382;44.768;17.206;2023-12-20T02:11:40;108.45;;;56.17;;
36351;SDS011;22382;44.768;17.206;2023-12-20T02:14:08;102.00;;;53.42;;
36351;SDS011;22382;44.768;17.206;2023-12-20T02:16:35;106.80;;;56.75;;
36351;SDS011;22382;44.768;17.206;2023-12-20T02:19:03;112.35;;;54.47;;
36351;SDS011;22382;44.768;17.206;2023-12-20T02:21:34;96.60;;;51.75;;
36351;SDS011;22382;44.768;17.206;2023-12-20T02:24:02;110.57;;;55.97;;
36351;SDS011;22382;44.768;17.206;2023-12-20T02:26:29;99.90;;;51.38;;
36351;SDS011;22382;44.768;17.206;2023-12-20T02:28:58;108.35;;;55.60;;
36351;SDS011;22382;44.768;17.206;2023-12-20T02:31:25;107.63;;;56.03;;
36351;SDS011;22382;44.768;17.206;2023-12-20T02:33:52;114.47;;;58.65;;
36351;SDS011;22382;44.768;17.206;2023-12-20T02:36:20;105.20;;;54.65;;
36351;SDS011;22382;44.768;17.206;2023-12-20T02:38:47;118.55;;;61.25;;
36351;SDS011;22382;44.768;17.206;2023-12-20T02:41:14;124.00;;;61.80;;
36351;SDS011;22382;44.768;17.206;2023-12-20T02:43:44;104.80;;;55.08;;
36351;SDS011;22382;44.768;17.206;2023-12-20T02:46:12;117.53;;;58.85;;
36351;SDS011;22382;44.768;17.206;2023-12-20T02:48:41;111.07;;;57.80;;
36351;SDS011;22382;44.768;17.206;2023-12-20T02:51:09;108.65;;;56.88;;
36351;SDS011;22382;44.768;17.206;2023-12-20T02:53:36;108.88;;;55.50;;
36351;SDS011;22382;44.768;17.206;2023-12-20T02:56:03;118.35;;;63.13;;
36351;SDS011;22382;44.768;17.206;2023-12-20T02:58:30;109.95;;;59.08;;
36351;SDS011;22382;44.768;17.206;2023-12-20T03:00:58;117.85;;;59.53;;
36351;SDS011;22382;44.768;17.206;2023-12-20T03:03:25;100.38;;;53.03;;
36351;SDS011;22382;44.768;17.206;2023-12-20T03:05:53;92.00;;;50.85;;
36351;SDS011;22382;44.768;17.206;2023-12-20T03:08:20;94.63;;;49.92;;
36351;SDS011;22382;44.768;17.206;2023-12-20T03:10:47;95.63;;;50.83;;
36351;SDS011;22382;44.768;17.206;2023-12-20T03:13:14;85.93;;;45.20;;
36351;SDS011;22382;44.768;17.206;2023-12-20T03:15:42;79.85;;;45.35;;
36351;SDS011;22382;44.768;17.206;2023-12-20T03:18:09;81.63;;;44.28;;
36351;SDS011;22382;44.768;17.206;2023-12-20T03:20:36;79.38;;;43.35;;
36351;SDS011;22382;44.768;17.206;2023-12-20T03:23:03;81.90;;;45.25;;
36351;SDS011;22382;44.768;17.206;2023-12-20T03:25:30;80.47;;;44.72;;
36351;SDS011;22382;44.768;17.206;2023-12-20T03:27:58;86.78;;;47.03;;
36351;SDS011;22382;44.768;17.206;2023-12-20T03:30:25;80.25;;;46.17;;
36351;SDS011;22382;44.768;17.206;2023-12-20T03:32:53;80.55;;;46.88;;
36351;SDS011;22382;44.768;17.206;2023-12-20T03:35:20;99.10;;;51.95;;
36351;SDS011;22382;44.768;17.206;2023-12-20T03:37:48;88.75;;;47.92;;
36351;SDS011;22382;44.768;17.206;2023-12-20T03:40:15;100.90;;;49.00;;
36351;SDS011;22382;44.768;17.206;2023-12-20T03:42:42;87.10;;;47.53;;
36351;SDS011;22382;44.768;17.206;2023-12-20T03:45:10;79.88;;;45.35;;
36351;SDS011;22382;44.768;17.206;2023-12-20T03:47:37;85.57;;;48.08;;
36351;SDS011;22382;44.768;17.206;2023-12-20T03:50:04;81.13;;;45.65;;
36351;SDS011;22382;44.768;17.206;2023-12-20T03:52:32;81.53;;;44.67;;
36351;SDS011;22382;44.768;17.206;2023-12-20T03:54:59;83.75;;;43.85;;
36351;SDS011;22382;44.768;17.206;2023-12-20T03:57:26;80.38;;;43.17;;
36351;SDS011;22382;44.768;17.206;2023-12-20T03:59:53;78.43;;;42.20;;
36351;SDS011;22382;44.768;17.206;2023-12-20T04:02:20;83.97;;;42.70;;
36351;SDS011;22382;44.768;17.206;2023-12-20T04:04:48;84.18;;;43.85;;
36351;SDS011;22382;44.768;17.206;2023-12-20T04:07:15;80.82;;;44.03;;
36351;SDS011;22382;44.768;17.206;2023-12-20T04:09:42;80.28;;;43.67;;
36351;SDS011;22382;44.768;17.206;2023-12-20T04:12:09;79.43;;;43.10;;
36351;SDS011;22382;44.768;17.206;2023-12-20T04:14:37;81.45;;;43.83;;
36351;SDS011;22382;44.768;17.206;2023-12-20T04:17:04;76.38;;;42.03;;
36351;SDS011;22382;44.768;17.206;2023-12-20T04:19:32;82.78;;;43.47;;
36351;SDS011;22382;44.768;17.206;2023-12-20T04:21:59;77.78;;;41.92;;
36351;SDS011;22382;44.768;17.206;2023-12-20T04:24:26;83.63;;;44.88;;
36351;SDS011;22382;44.768;17.206;2023-12-20T04:26:53;83.30;;;44.70;;
36351;SDS011;22382;44.768;17.206;2023-12-20T04:29:20;86.90;;;46.53;;
36351;SDS011;22382;44.768;17.206;2023-12-20T04:31:48;87.60;;;46.88;;
36351;SDS011;22382;44.768;17.206;2023-12-20T04:34:16;84.60;;;46.70;;
36351;SDS011;22382;44.768;17.206;2023-12-20T04:36:44;120.55;;;69.88;;
36351;SDS011;22382;44.768;17.206;2023-12-20T04:39:12;93.38;;;52.20;;
36351;SDS011;22382;44.768;17.206;2023-12-20T04:41:41;91.60;;;51.88;;
36351;SDS011;22382;44.768;17.206;2023-12-20T04:44:08;93.13;;;51.28;;
36351;SDS011;22382;44.768;17.206;2023-12-20T04:46:35;90.80;;;49.20;;
36351;SDS011;22382;44.768;17.206;2023-12-20T04:49:02;79.40;;;42.75;;
36351;SDS011;22382;44.768;17.206;2023-12-20T04:51:32;82.80;;;43.95;;
36351;SDS011;22382;44.768;17.206;2023-12-20T04:54:03;81.63;;;43.17;;
36351;SDS011;22382;44.768;17.206;2023-12-20T04:56:30;73.57;;;40.47;;
36351;SDS011;22382;44.768;17.206;2023-12-20T04:58:57;81.97;;;44.83;;
36351;SDS011;22382;44.768;17.206;2023-12-20T05:01:25;89.15;;;47.75;;
36351;SDS011;22382;44.768;17.206;2023-12-20T05:03:52;88.03;;;47.50;;
36351;SDS011;22382;44.768;17.206;2023-12-20T05:06:19;98.70;;;52.17;;
36351;SDS011;22382;44.768;17.206;2023-12-20T05:08:46;104.00;;;53.30;;
36351;SDS011;22382;44.768;17.206;2023-12-20T05:11:14;96.22;;;50.53;;
36351;SDS011;22382;44.768;17.206;2023-12-20T05:13:42;101.80;;;51.88;;
36351;SDS011;22382;44.768;17.206;2023-12-20T05:16:15;92.25;;;50.72;;
36351;SDS011;22382;44.768;17.206;2023-12-20T05:18:45;88.28;;;47.75;;
36351;SDS011;22382;44.768;17.206;2023-12-20T05:21:14;81.90;;;45.42;;
36351;SDS011;22382;44.768;17.206;2023-12-20T05:23:42;87.78;;;45.70;;
36351;SDS011;22382;44.768;17.206;2023-12-20T05:26:09;81.35;;;45.00;;
36351;SDS011;22382;44.768;17.206;2023-12-20T05:28:36;92.00;;;49.15;;
36351;SDS011;22382;44.768;17.206;2023-12-20T05:31:03;95.18;;;50.60;;
36351;SDS011;22382;44.768;17.206;2023-12-20T05:33:30;87.90;;;48.38;;
36351;SDS011;22382;44.768;17.206;2023-12-20T05:35:58;79.85;;;42.63;;
36351;SDS011;22382;44.768;17.206;2023-12-20T05:38:25;80.78;;;42.53;;
36351;SDS011;22382;44.768;17.206;2023-12-20T05:40:53;76.22;;;42.00;;
36351;SDS011;22382;44.768;17.206;2023-12-20T05:43:20;83.05;;;46.75;;
36351;SDS011;22382;44.768;17.206;2023-12-20T05:45:47;93.43;;;47.95;;
36351;SDS011;22382;44.768;17.206;2023-12-20T05:48:14;88.82;;;46.55;;
36351;SDS011;22382;44.768;17.206;2023-12-20T05:50:41;86.10;;;46.13;;
36351;SDS011;22382;44.768;17.206;2023-12-20T05:53:09;79.75;;;43.17;;
36351;SDS011;22382;44.768;17.206;2023-12-20T05:55:36;90.32;;;46.40;;
36351;SDS011;22382;44.768;17.206;2023-12-20T05:58:03;88.60;;;46.08;;
36351;SDS011;22382;44.768;17.206;2023-12-20T06:00:31;84.75;;;44.13;;
36351;SDS011;22382;44.768;17.206;2023-12-20T06:02:59;73.53;;;40.42;;
36351;SDS011;22382;44.768;17.206;2023-12-20T06:05:26;76.72;;;42.13;;
36351;SDS011;22382;44.768;17.206;2023-12-20T06:07:53;78.68;;;43.22;;
36351;SDS011;22382;44.768;17.206;2023-12-20T06:10:23;83.28;;;42.78;;
36351;SDS011;22382;44.768;17.206;2023-12-20T06:12:50;77.20;;;41.95;;
36351;SDS011;22382;44.768;17.206;2023-12-20T06:15:18;81.15;;;43.33;;
36351;SDS011;22382;44.768;17.206;2023-12-20T06:17:45;83.05;;;46.30;;
36351;SDS011;22382;44.768;17.206;2023-12-20T06:20:14;92.55;;;47.65;;
36351;SDS011;22382;44.768;17.206;2023-12-20T06:22:42;85.10;;;46.45;;
36351;SDS011;22382;44.768;17.206;2023-12-20T06:25:09;80.35;;;42.75;;
36351;SDS011;22382;44.768;17.206;2023-12-20T06:27:37;86.72;;;46.53;;
36351;SDS011;22382;44.768;17.206;2023-12-20T06:30:05;87.78;;;44.88;;
36351;SDS011;22382;44.768;17.206;2023-12-20T06:32:33;80.15;;;45.08;;
36351;SDS011;22382;44.768;17.206;2023-12-20T06:35:01;96.55;;;54.47;;
36351;SDS011;22382;44.768;17.206;2023-12-20T06:37:28;92.47;;;48.47;;
36351;SDS011;22382;44.768;17.206;2023-12-20T06:39:56;91.95;;;51.90;;
36351;SDS011;22382;44.768;17.206;2023-12-20T06:42:23;84.15;;;47.10;;
36351;SDS011;22382;44.768;17.206;2023-12-20T06:44:50;86.20;;;49.22;;
36351;SDS011;22382;44.768;17.206;2023-12-20T06:47:17;79.68;;;45.70;;
36351;SDS011;22382;44.768;17.206;2023-12-20T06:49:44;82.80;;;45.85;;
36351;SDS011;22382;44.768;17.206;2023-12-20T06:52:12;88.95;;;48.90;;
36351;SDS011;22382;44.768;17.206;2023-12-20T06:54:39;120.32;;;65.53;;
36351;SDS011;22382;44.768;17.206;2023-12-20T06:57:06;136.82;;;72.35;;
36351;SDS011;22382;44.768;17.206;2023-12-20T06:59:37;89.63;;;47.90;;
36351;SDS011;22382;44.768;17.206;2023-12-20T07:02:10;70.82;;;42.90;;
36351;SDS011;22382;44.768;17.206;2023-12-20T07:04:41;69.07;;;38.70;;
36351;SDS011;22382;44.768;17.206;2023-12-20T07:07:08;63.00;;;35.90;;
36351;SDS011;22382;44.768;17.206;2023-12-20T07:09:36;60.88;;;34.65;;
36351;SDS011;22382;44.768;17.206;2023-12-20T07:12:04;64.60;;;36.03;;
36351;SDS011;22382;44.768;17.206;2023-12-20T07:14:32;73.40;;;39.40;;
36351;SDS011;22382;44.768;17.206;2023-12-20T07:16:59;77.93;;;41.28;;
36351;SDS011;22382;44.768;17.206;2023-12-20T07:19:26;62.67;;;36.55;;
36351;SDS011;22382;44.768;17.206;2023-12-20T07:21:53;70.13;;;38.63;;
36351;SDS011;22382;44.768;17.206;2023-12-20T07:24:21;69.03;;;41.03;;
36351;SDS011;22382;44.768;17.206;2023-12-20T07:26:48;71.00;;;39.38;;
36351;SDS011;22382;44.768;17.206;2023-12-20T07:29:16;63.10;;;38.03;;
36351;SDS011;22382;44.768;17.206;2023-12-20T07:31:43;64.35;;;37.67;;
36351;SDS011;22382;44.768;17.206;2023-12-20T07:34:11;68.78;;;38.67;;
36351;SDS011;22382;44.768;17.206;2023-12-20T07:36:38;70.50;;;37.38;;
36351;SDS011;22382;44.768;17.206;2023-12-20T07:39:05;70.07;;;37.83;;
36351;SDS011;22382;44.768;17.206;2023-12-20T07:41:32;68.18;;;39.28;;
36351;SDS011;22382;44.768;17.206;2023-12-20T07:44:00;72.63;;;40.42;;
36351;SDS011;22382;44.768;17.206;2023-12-20T07:46:27;86.18;;;48.83;;
36351;SDS011;22382;44.768;17.206;2023-12-20T07:48:54;94.20;;;50.20;;
36351;SDS011;22382;44.768;17.206;2023-12-20T07:51:21;87.75;;;46.22;;
36351;SDS011;22382;44.768;17.206;2023-12-20T07:53:48;83.78;;;46.20;;
36351;SDS011;22382;44.768;17.206;2023-12-20T07:56:16;72.88;;;40.63;;
36351;SDS011;22382;44.768;17.206;2023-12-20T07:58:44;79.28;;;41.97;;
36351;SDS011;22382;44.768;17.206;2023-12-20T08:01:19;88.38;;;45.53;;
36351;SDS011;22382;44.768;17.206;2023-12-20T08:03:48;77.68;;;44.67;;
36351;SDS011;22382;44.768;17.206;2023-12-20T08:06:17;72.15;;;41.92;;
36351;SDS011;22382;44.768;17.206;2023-12-20T08:08:45;77.47;;;44.42;;
36351;SDS011;22382;44.768;17.206;2023-12-20T08:11:20;74.93;;;43.20;;
36351;SDS011;22382;44.768;17.206;2023-12-20T08:13:47;81.60;;;45.50;;
36351;SDS011;22382;44.768;17.206;2023-12-20T08:16:14;72.80;;;42.28;;
36351;SDS011;22382;44.768;17.206;2023-12-20T08:18:44;86.07;;;46.88;;
36351;SDS011;22382;44.768;17.206;2023-12-20T08:21:11;83.85;;;48.15;;
36351;SDS011;22382;44.768;17.206;2023-12-20T08:23:38;92.07;;;51.83;;
36351;SDS011;22382;44.768;17.206;2023-12-20T08:26:06;114.82;;;62.03;;
36351;SDS011;22382;44.768;17.206;2023-12-20T08:28:34;113.82;;;63.45;;
36351;SDS011;22382;44.768;17.206;2023-12-20T08:31:01;108.53;;;62.42;;
36351;SDS011;22382;44.768;17.206;2023-12-20T08:33:29;108.53;;;61.83;;
36351;SDS011;22382;44.768;17.206;2023-12-20T08:35:56;103.90;;;59.92;;
36351;SDS011;22382;44.768;17.206;2023-12-20T08:38:23;114.70;;;63.25;;
36351;SDS011;22382;44.768;17.206;2023-12-20T08:40:50;113.93;;;66.90;;
36351;SDS011;22382;44.768;17.206;2023-12-20T08:43:17;127.50;;;70.80;;
36351;SDS011;22382;44.768;17.206;2023-12-20T08:45:45;131.23;;;72.28;;
36351;SDS011;22382;44.768;17.206;2023-12-20T08:48:12;128.13;;;71.57;;
36351;SDS011;22382;44.768;17.206;2023-12-20T08:50:40;120.57;;;68.85;;
36351;SDS011;22382;44.768;17.206;2023-12-20T08:53:07;126.13;;;72.05;;
36351;SDS011;22382;44.768;17.206;2023-12-20T08:55:36;151.85;;;88.05;;
36351;SDS011;22382;44.768;17.206;2023-12-20T08:58:03;139.60;;;82.10;;
36351;SDS011;22382;44.768;17.206;2023-12-20T09:00:33;168.13;;;97.88;;
36351;SDS011;22382;44.768;17.206;2023-12-20T09:03:01;166.77;;;96.95;;
36351;SDS011;22382;44.768;17.206;2023-12-20T09:05:29;141.82;;;83.85;;
36351;SDS011;22382;44.768;17.206;2023-12-20T09:07:56;161.85;;;91.00;;
36351;SDS011;22382;44.768;17.206;2023-12-20T09:10:24;198.13;;;113.40;;
36351;SDS011;22382;44.768;17.206;2023-12-20T09:12:52;205.00;;;117.90;;
36351;SDS011;22382;44.768;17.206;2023-12-20T09:15:24;179.27;;;104.43;;
36351;SDS011;22382;44.768;17.206;2023-12-20T09:17:51;199.85;;;112.88;;
36351;SDS011;22382;44.768;17.206;2023-12-20T09:20:19;201.68;;;114.82;;
36351;SDS011;22382;44.768;17.206;2023-12-20T09:22:47;241.80;;;138.35;;
36351;SDS011;22382;44.768;17.206;2023-12-20T09:25:14;227.60;;;131.45;;
36351;SDS011;22382;44.768;17.206;2023-12-20T09:27:43;209.77;;;122.38;;
36351;SDS011;22382;44.768;17.206;2023-12-20T09:30:11;219.40;;;125.00;;
36351;SDS011;22382;44.768;17.206;2023-12-20T09:32:50;235.68;;;130.80;;
36351;SDS011;22382;44.768;17.206;2023-12-20T09:35:18;221.32;;;126.60;;
36351;SDS011;22382;44.768;17.206;2023-12-20T09:37:46;210.57;;;120.50;;
36351;SDS011;22382;44.768;17.206;2023-12-20T09:40:13;209.13;;;122.35;;
36351;SDS011;22382;44.768;17.206;2023-12-20T09:42:48;206.98;;;118.07;;
36351;SDS011;22382;44.768;17.206;2023-12-20T09:45:23;216.82;;;126.57;;
36351;SDS011;22382;44.768;17.206;2023-12-20T09:47:54;207.07;;;120.13;;
36351;SDS011;22382;44.768;17.206;2023-12-20T09:50:22;220.88;;;126.75;;
36351;SDS011;22382;44.768;17.206;2023-12-20T09:52:50;168.45;;;102.05;;
36351;SDS011;22382;44.768;17.206;2023-12-20T09:55:19;155.95;;;90.93;;
36351;SDS011;22382;44.768;17.206;2023-12-20T09:57:47;148.25;;;88.57;;
36351;SDS011;22382;44.768;17.206;2023-12-20T10:00:15;160.65;;;94.80;;
36351;SDS011;22382;44.768;17.206;2023-12-20T10:02:50;159.27;;;93.45;;
36351;SDS011;22382;44.768;17.206;2023-12-20T10:05:26;151.05;;;89.25;;
36351;SDS011;22382;44.768;17.206;2023-12-20T10:07:55;208.27;;;125.07;;
36351;SDS011;22382;44.768;17.206;2023-12-20T10:10:24;227.23;;;133.18;;
36351;SDS011;22382;44.768;17.206;2023-12-20T10:13:04;221.80;;;127.05;;
36351;SDS011;22382;44.768;17.206;2023-12-20T10:15:34;179.68;;;109.45;;
36351;SDS011;22382;44.768;17.206;2023-12-20T10:18:02;177.25;;;103.78;;
36351;SDS011;22382;44.768;17.206;2023-12-20T10:20:30;182.07;;;108.13;;
36351;SDS011;22382;44.768;17.206;2023-12-20T10:22:58;164.40;;;97.72;;
36351;SDS011;22382;44.768;17.206;2023-12-20T10:25:27;172.40;;;101.00;;
36351;SDS011;22382;44.768;17.206;2023-12-20T10:28:13;201.30;;;118.15;;
36351;SDS011;22382;44.768;17.206;2023-12-20T10:30:44;162.38;;;101.22;;
36351;SDS011;22382;44.768;17.206;2023-12-20T10:33:11;181.57;;;110.32;;
36351;SDS011;22382;44.768;17.206;2023-12-20T10:35:39;167.50;;;102.65;;
36351;SDS011;22382;44.768;17.206;2023-12-20T10:38:12;168.20;;;99.10;;
36351;SDS011;22382;44.768;17.206;2023-12-20T10:40:41;195.18;;;114.70;;
36351;SDS011;22382;44.768;17.206;2023-12-20T10:43:12;172.93;;;106.72;;
36351;SDS011;22382;44.768;17.206;2023-12-20T10:45:41;156.40;;;92.43;;
36351;SDS011;22382;44.768;17.206;2023-12-20T10:48:12;135.18;;;82.88;;
36351;SDS011;22382;44.768;17.206;2023-12-20T10:50:39;130.35;;;75.80;;
36351;SDS011;22382;44.768;17.206;2023-12-20T10:53:08;133.57;;;73.88;;
36351;SDS011;22382;44.768;17.206;2023-12-20T10:55:35;125.05;;;75.00;;
36351;SDS011;22382;44.768;17.206;2023-12-20T10:58:09;122.68;;;73.28;;
36351;SDS011;22382;44.768;17.206;2023-12-20T11:00:40;122.40;;;68.97;;
36351;SDS011;22382;44.768;17.206;2023-12-20T11:03:09;139.77;;;78.93;;
36351;SDS011;22382;44.768;17.206;2023-12-20T11:05:49;118.25;;;69.55;;
36351;SDS011;22382;44.768;17.206;2023-12-20T11:11:02;89.50;;;54.90;;
36351;SDS011;22382;44.768;17.206;2023-12-20T11:13:43;110.82;;;63.70;;
36351;SDS011;22382;44.768;17.206;2023-12-20T11:16:20;92.45;;;55.97;;
36351;SDS011;22382;44.768;17.206;2023-12-20T11:19:13;110.80;;;68.70;;
36351;SDS011;22382;44.768;17.206;2023-12-20T11:21:41;114.63;;;71.30;;
36351;SDS011;22382;44.768;17.206;2023-12-20T11:24:15;109.75;;;66.72;;
36351;SDS011;22382;44.768;17.206;2023-12-20T11:26:57;105.53;;;64.05;;
36351;SDS011;22382;44.768;17.206;2023-12-20T11:29:34;115.72;;;68.38;;
36351;SDS011;22382;44.768;17.206;2023-12-20T11:32:50;114.75;;;70.60;;
36351;SDS011;22382;44.768;17.206;2023-12-20T11:34:58;129.75;;;80.13;;
36351;SDS011;22382;44.768;17.206;2023-12-20T11:37:39;166.52;;;101.68;;
36351;SDS011;22382;44.768;17.206;2023-12-20T11:40:16;170.93;;;105.13;;
36351;SDS011;22382;44.768;17.206;2023-12-20T11:42:48;162.15;;;101.68;;
36351;SDS011;22382;44.768;17.206;2023-12-20T11:45:19;168.13;;;106.68;;
36351;SDS011;22382;44.768;17.206;2023-12-20T11:47:51;150.63;;;94.53;;
36351;SDS011;22382;44.768;17.206;2023-12-20T11:50:25;189.68;;;116.38;;
36351;SDS011;22382;44.768;17.206;2023-12-20T11:52:54;180.88;;;113.70;;
36351;SDS011;22382;44.768;17.206;2023-12-20T11:55:24;180.25;;;111.38;;
36351;SDS011;22382;44.768;17.206;2023-12-20T11:57:54;179.23;;;113.38;;
36351;SDS011;22382;44.768;17.206;2023-12-20T12:00:24;183.88;;;115.03;;
36351;SDS011;22382;44.768;17.206;2023-12-20T12:02:55;188.65;;;125.55;;
36351;SDS011;22382;44.768;17.206;2023-12-20T12:05:23;182.10;;;115.97;;
36351;SDS011;22382;44.768;17.206;2023-12-20T12:07:50;185.13;;;119.40;;
36351;SDS011;22382;44.768;17.206;2023-12-20T12:10:17;147.23;;;96.85;;
36351;SDS011;22382;44.768;17.206;2023-12-20T12:12:45;144.82;;;91.45;;
36351;SDS011;22382;44.768;17.206;2023-12-20T12:15:14;111.97;;;72.55;;
36351;SDS011;22382;44.768;17.206;2023-12-20T12:17:41;73.65;;;46.20;;
36351;SDS011;22382;44.768;17.206;2023-12-20T12:20:08;25.92;;;13.75;;
36351;SDS011;22382;44.768;17.206;2023-12-20T12:22:36;24.15;;;12.25;;
36351;SDS011;22382;44.768;17.206;2023-12-20T12:25:11;16.02;;;9.65;;
36351;SDS011;22382;44.768;17.206;2023-12-20T12:27:40;16.95;;;10.48;;
36351;SDS011;22382;44.768;17.206;2023-12-20T12:30:09;14.68;;;9.98;;
36351;SDS011;22382;44.768;17.206;2023-12-20T12:32:37;16.00;;;10.02;;
36351;SDS011;22382;44.768;17.206;2023-12-20T12:35:05;19.08;;;10.05;;
36351;SDS011;22382;44.768;17.206;2023-12-20T12:37:35;15.45;;;9.80;;
36351;SDS011;22382;44.768;17.206;2023-12-20T12:40:10;16.20;;;9.32;;
36351;SDS011;22382;44.768;17.206;2023-12-20T12:42:38;16.17;;;9.65;;
36351;SDS011;22382;44.768;17.206;2023-12-20T12:45:06;14.98;;;9.18;;
36351;SDS011;22382;44.768;17.206;2023-12-20T12:47:34;11.10;;;7.45;;
36351;SDS011;22382;44.768;17.206;2023-12-20T12:50:01;15.68;;;9.00;;
36351;SDS011;22382;44.768;17.206;2023-12-20T12:52:30;13.82;;;8.02;;
36351;SDS011;22382;44.768;17.206;2023-12-20T12:54:57;10.82;;;7.15;;
36351;SDS011;22382;44.768;17.206;2023-12-20T12:57:25;12.70;;;7.80;;
36351;SDS011;22382;44.768;17.206;2023-12-20T12:59:53;17.02;;;9.50;;
36351;SDS011;22382;44.768;17.206;2023-12-20T13:02:20;21.27;;;10.73;;
36351;SDS011;22382;44.768;17.206;2023-12-20T13:04:47;17.42;;;9.10;;
36351;SDS011;22382;44.768;17.206;2023-12-20T13:07:14;15.05;;;10.25;;
36351;SDS011;22382;44.768;17.206;2023-12-20T13:09:42;14.70;;;9.00;;
36351;SDS011;22382;44.768;17.206;2023-12-20T13:12:10;14.93;;;10.32;;
36351;SDS011;22382;44.768;17.206;2023-12-20T13:14:37;14.63;;;9.48;;
36351;SDS011;22382;44.768;17.206;2023-12-20T13:17:04;15.25;;;9.82;;
36351;SDS011;22382;44.768;17.206;2023-12-20T13:19:32;15.52;;;9.77;;
36351;SDS011;22382;44.768;17.206;2023-12-20T13:21:59;15.07;;;9.60;;
36351;SDS011;22382;44.768;17.206;2023-12-20T13:24:27;15.18;;;9.52;;
36351;SDS011;22382;44.768;17.206;2023-12-20T13:26:55;15.35;;;9.32;;
36351;SDS011;22382;44.768;17.206;2023-12-20T13:29:23;14.95;;;9.85;;
36351;SDS011;22382;44.768;17.206;2023-12-20T13:31:54;15.35;;;9.60;;
36351;SDS011;22382;44.768;17.206;2023-12-20T13:34:21;17.08;;;10.20;;
36351;SDS011;22382;44.768;17.206;2023-12-20T13:36:49;18.42;;;10.77;;
36351;SDS011;22382;44.768;17.206;2023-12-20T13:39:17;17.73;;;9.93;;
36351;SDS011;22382;44.768;17.206;2023-12-20T13:41:44;15.93;;;10.15;;
36351;SDS011;22382;44.768;17.206;2023-12-20T13:44:11;22.85;;;11.68;;
36351;SDS011;22382;44.768;17.206;2023-12-20T13:46:39;18.90;;;11.50;;
36351;SDS011;22382;44.768;17.206;2023-12-20T13:49:07;17.63;;;11.80;;
36351;SDS011;22382;44.768;17.206;2023-12-20T13:51:35;24.52;;;13.90;;
36351;SDS011;22382;44.768;17.206;2023-12-20T13:54:02;17.58;;;11.18;;
36351;SDS011;22382;44.768;17.206;2023-12-20T13:56:30;21.23;;;10.73;;
36351;SDS011;22382;44.768;17.206;2023-12-20T13:59:12;15.73;;;9.77;;
36351;SDS011;22382;44.768;17.206;2023-12-20T14:01:41;18.67;;;9.43;;
36351;SDS011;22382;44.768;17.206;2023-12-20T14:04:08;16.42;;;9.70;;
36351;SDS011;22382;44.768;17.206;2023-12-20T14:06:57;18.40;;;10.50;;
36351;SDS011;22382;44.768;17.206;2023-12-20T14:09:25;16.60;;;9.35;;
36351;SDS011;22382;44.768;17.206;2023-12-20T14:11:52;15.15;;;9.05;;
36351;SDS011;22382;44.768;17.206;2023-12-20T14:14:22;19.98;;;9.80;;